sensor_id;sensor_type;location;lat;lon;timestamp;P1;durP1;ratioP1;P2;durP2;ratioP2
27209;SDS011;14721;42.668;23.386;2023-06-04T00:00:16;3.97;;;2.55;;
27209;SDS011;14721;42.668;23.386;2023-06-04T00:02:42;3.88;;;2.55;;
27209;SDS011;14721;42.668;23.386;2023-06-04T00:05:08;6.30;;;2.88;;
27209;SDS011;14721;42.668;23.386;2023-06-04T00:07:34;3.45;;;2.65;;
27209;SDS011;14721;42.668;23.386;2023-06-04T00:09:59;6.25;;;2.65;;
27209;SDS011;14721;42.668;23.386;2023-06-04T00:12:25;4.05;;;2.85;;
27209;SDS011;14721;42.668;23.386;2023-06-04T00:14:51;6.15;;;2.60;;
27209;SDS011;14721;42.668;23.386;2023-06-04T00:17:16;5.32;;;2.90;;
27209;SDS011;14721;42.668;23.386;2023-06-04T00:19:42;6.65;;;3.50;;
27209;SDS011;14721;42.668;23.386;2023-06-04T00:22:07;5.07;;;2.40;;
27209;SDS011;14721;42.668;23.386;2023-06-04T00:24:34;4.32;;;2.60;;
27209;SDS011;14721;42.668;23.386;2023-06-04T00:27:03;4.72;;;2.55;;
27209;SDS011;14721;42.668;23.386;2023-06-04T00:29:28;4.65;;;2.58;;
27209;SDS011;14721;42.668;23.386;2023-06-04T00:31:54;6.15;;;3.03;;
27209;SDS011;14721;42.668;23.386;2023-06-04T00:34:22;5.22;;;2.90;;
27209;SDS011;14721;42.668;23.386;2023-06-04T00:36:48;4.60;;;2.78;;
27209;SDS011;14721;42.668;23.386;2023-06-04T00:39:13;6.45;;;3.30;;
27209;SDS011;14721;42.668;23.386;2023-06-04T00:41:39;5.15;;;3.50;;
27209;SDS011;14721;42.668;23.386;2023-06-04T00:44:05;7.75;;;3.70;;
27209;SDS011;14721;42.668;23.386;2023-06-04T00:46:32;9.20;;;4.10;;
27209;SDS011;14721;42.668;23.386;2023-06-04T00:48:59;8.77;;;3.92;;
27209;SDS011;14721;42.668;23.386;2023-06-04T00:51:25;5.93;;;3.72;;
27209;SDS011;14721;42.668;23.386;2023-06-04T00:53:51;7.38;;;4.10;;
27209;SDS011;14721;42.668;23.386;2023-06-04T00:56:18;6.43;;;3.97;;
27209;SDS011;14721;42.668;23.386;2023-06-04T00:58:44;6.25;;;3.60;;
27209;SDS011;14721;42.668;23.386;2023-06-04T01:03:57;4.22;;;2.72;;
27209;SDS011;14721;42.668;23.386;2023-06-04T01:08:58;4.40;;;2.80;;
27209;SDS011;14721;42.668;23.386;2023-06-04T01:11:32;5.50;;;3.38;;
27209;SDS011;14721;42.668;23.386;2023-06-04T01:14:02;4.85;;;2.60;;
27209;SDS011;14721;42.668;23.386;2023-06-04T01:16:31;5.07;;;2.95;;
27209;SDS011;14721;42.668;23.386;2023-06-04T01:19:04;6.35;;;2.78;;
27209;SDS011;14721;42.668;23.386;2023-06-04T01:21:48;3.58;;;2.40;;
27209;SDS011;14721;42.668;23.386;2023-06-04T01:24:18;4.38;;;3.08;;
27209;SDS011;14721;42.668;23.386;2023-06-04T01:26:50;4.35;;;2.47;;
27209;SDS011;14721;42.668;23.386;2023-06-04T01:29:17;4.80;;;2.10;;
27209;SDS011;14721;42.668;23.386;2023-06-04T01:31:43;4.05;;;1.88;;
27209;SDS011;14721;42.668;23.386;2023-06-04T01:34:08;3.08;;;1.90;;
27209;SDS011;14721;42.668;23.386;2023-06-04T01:36:34;3.85;;;2.40;;
27209;SDS011;14721;42.668;23.386;2023-06-04T01:39:00;3.15;;;2.03;;
27209;SDS011;14721;42.668;23.386;2023-06-04T01:41:27;4.80;;;2.30;;
27209;SDS011;14721;42.668;23.386;2023-06-04T01:43:53;3.67;;;2.30;;
27209;SDS011;14721;42.668;23.386;2023-06-04T01:46:18;4.32;;;2.22;;
27209;SDS011;14721;42.668;23.386;2023-06-04T01:48:44;3.22;;;2.05;;
27209;SDS011;14721;42.668;23.386;2023-06-04T01:51:14;4.32;;;2.25;;
27209;SDS011;14721;42.668;23.386;2023-06-04T01:53:39;4.07;;;2.50;;
27209;SDS011;14721;42.668;23.386;2023-06-04T01:56:05;5.78;;;2.80;;
27209;SDS011;14721;42.668;23.386;2023-06-04T01:58:32;3.88;;;2.28;;
27209;SDS011;14721;42.668;23.386;2023-06-04T02:00:59;4.18;;;2.42;;
27209;SDS011;14721;42.668;23.386;2023-06-04T02:03:28;4.40;;;2.50;;
27209;SDS011;14721;42.668;23.386;2023-06-04T02:05:57;4.43;;;2.50;;
27209;SDS011;14721;42.668;23.386;2023-06-04T02:08:23;2.78;;;1.92;;
27209;SDS011;14721;42.668;23.386;2023-06-04T02:10:50;4.90;;;2.67;;
27209;SDS011;14721;42.668;23.386;2023-06-04T02:13:16;3.53;;;2.28;;
27209;SDS011;14721;42.668;23.386;2023-06-04T02:15:42;4.43;;;2.50;;
27209;SDS011;14721;42.668;23.386;2023-06-04T02:18:15;5.72;;;2.22;;
27209;SDS011;14721;42.668;23.386;2023-06-04T02:20:46;3.97;;;2.13;;
27209;SDS011;14721;42.668;23.386;2023-06-04T02:23:19;3.33;;;2.05;;
27209;SDS011;14721;42.668;23.386;2023-06-04T02:25:50;4.32;;;2.40;;
27209;SDS011;14721;42.668;23.386;2023-06-04T02:28:15;5.20;;;2.45;;
27209;SDS011;14721;42.668;23.386;2023-06-04T02:30:43;3.17;;;1.92;;
27209;SDS011;14721;42.668;23.386;2023-06-04T02:33:10;4.70;;;2.90;;
27209;SDS011;14721;42.668;23.386;2023-06-04T02:35:36;5.25;;;2.83;;
27209;SDS011;14721;42.668;23.386;2023-06-04T02:38:02;5.40;;;2.78;;
27209;SDS011;14721;42.668;23.386;2023-06-04T02:40:28;4.40;;;2.58;;
27209;SDS011;14721;42.668;23.386;2023-06-04T02:42:54;6.15;;;2.58;;
27209;SDS011;14721;42.668;23.386;2023-06-04T02:45:21;5.15;;;2.45;;
27209;SDS011;14721;42.668;23.386;2023-06-04T02:47:47;4.00;;;2.67;;
27209;SDS011;14721;42.668;23.386;2023-06-04T02:50:13;5.65;;;2.13;;
27209;SDS011;14721;42.668;23.386;2023-06-04T02:52:40;4.65;;;2.65;;
27209;SDS011;14721;42.668;23.386;2023-06-04T02:55:07;5.07;;;2.67;;
27209;SDS011;14721;42.668;23.386;2023-06-04T02:57:34;5.75;;;3.05;;
27209;SDS011;14721;42.668;23.386;2023-06-04T03:00:00;5.50;;;2.63;;
27209;SDS011;14721;42.668;23.386;2023-06-04T03:02:26;5.10;;;2.38;;
27209;SDS011;14721;42.668;23.386;2023-06-04T03:04:53;4.85;;;2.47;;
27209;SDS011;14721;42.668;23.386;2023-06-04T03:07:20;5.28;;;3.05;;
27209;SDS011;14721;42.668;23.386;2023-06-04T03:09:48;4.35;;;2.55;;
27209;SDS011;14721;42.668;23.386;2023-06-04T03:12:14;4.38;;;2.53;;
27209;SDS011;14721;42.668;23.386;2023-06-04T03:14:40;3.45;;;2.28;;
27209;SDS011;14721;42.668;23.386;2023-06-04T03:17:06;4.65;;;3.08;;
27209;SDS011;14721;42.668;23.386;2023-06-04T03:19:39;4.63;;;2.63;;
27209;SDS011;14721;42.668;23.386;2023-06-04T03:22:07;3.75;;;2.72;;
27209;SDS011;14721;42.668;23.386;2023-06-04T03:24:38;7.75;;;2.78;;
27209;SDS011;14721;42.668;23.386;2023-06-04T03:27:07;4.32;;;2.42;;
27209;SDS011;14721;42.668;23.386;2023-06-04T03:29:35;4.85;;;2.58;;
27209;SDS011;14721;42.668;23.386;2023-06-04T03:32:01;3.90;;;2.58;;
27209;SDS011;14721;42.668;23.386;2023-06-04T03:34:27;4.45;;;2.55;;
27209;SDS011;14721;42.668;23.386;2023-06-04T03:36:56;5.82;;;2.63;;
27209;SDS011;14721;42.668;23.386;2023-06-04T03:39:23;3.58;;;2.50;;
27209;SDS011;14721;42.668;23.386;2023-06-04T03:41:49;6.68;;;4.10;;
27209;SDS011;14721;42.668;23.386;2023-06-04T03:44:15;6.68;;;4.22;;
27209;SDS011;14721;42.668;23.386;2023-06-04T03:46:42;5.07;;;3.00;;
27209;SDS011;14721;42.668;23.386;2023-06-04T03:49:11;7.68;;;2.90;;
27209;SDS011;14721;42.668;23.386;2023-06-04T03:51:53;5.20;;;3.20;;
27209;SDS011;14721;42.668;23.386;2023-06-04T03:54:21;4.60;;;2.55;;
27209;SDS011;14721;42.668;23.386;2023-06-04T03:56:47;7.75;;;3.13;;
27209;SDS011;14721;42.668;23.386;2023-06-04T03:59:13;5.97;;;3.17;;
27209;SDS011;14721;42.668;23.386;2023-06-04T04:01:38;3.47;;;2.20;;
27209;SDS011;14721;42.668;23.386;2023-06-04T04:04:04;6.28;;;3.42;;
27209;SDS011;14721;42.668;23.386;2023-06-04T04:06:30;12.02;;;5.50;;
27209;SDS011;14721;42.668;23.386;2023-06-04T04:08:56;16.70;;;7.75;;
27209;SDS011;14721;42.668;23.386;2023-06-04T04:11:23;6.60;;;3.17;;
27209;SDS011;14721;42.668;23.386;2023-06-04T04:13:49;5.90;;;3.47;;
27209;SDS011;14721;42.668;23.386;2023-06-04T04:16:14;4.50;;;2.85;;
27209;SDS011;14721;42.668;23.386;2023-06-04T04:18:43;4.05;;;2.60;;
27209;SDS011;14721;42.668;23.386;2023-06-04T04:21:09;4.13;;;2.85;;
27209;SDS011;14721;42.668;23.386;2023-06-04T04:23:37;5.88;;;2.90;;
27209;SDS011;14721;42.668;23.386;2023-06-04T04:26:05;5.45;;;2.97;;
27209;SDS011;14721;42.668;23.386;2023-06-04T04:28:31;6.25;;;2.60;;
27209;SDS011;14721;42.668;23.386;2023-06-04T04:31:00;8.60;;;4.65;;
27209;SDS011;14721;42.668;23.386;2023-06-04T04:33:27;4.93;;;2.50;;
27209;SDS011;14721;42.668;23.386;2023-06-04T04:35:58;7.07;;;3.60;;
27209;SDS011;14721;42.668;23.386;2023-06-04T04:38:26;5.38;;;3.53;;
27209;SDS011;14721;42.668;23.386;2023-06-04T04:40:53;8.07;;;3.33;;
27209;SDS011;14721;42.668;23.386;2023-06-04T04:43:33;7.45;;;3.05;;
27209;SDS011;14721;42.668;23.386;2023-06-04T04:45:59;5.80;;;3.75;;
27209;SDS011;14721;42.668;23.386;2023-06-04T04:48:25;7.05;;;4.20;;
27209;SDS011;14721;42.668;23.386;2023-06-04T04:50:51;7.53;;;4.50;;
27209;SDS011;14721;42.668;23.386;2023-06-04T04:53:17;9.90;;;4.30;;
27209;SDS011;14721;42.668;23.386;2023-06-04T04:55:43;6.18;;;3.90;;
27209;SDS011;14721;42.668;23.386;2023-06-04T04:58:09;5.70;;;3.50;;
27209;SDS011;14721;42.668;23.386;2023-06-04T05:00:35;8.18;;;3.75;;
27209;SDS011;14721;42.668;23.386;2023-06-04T05:03:00;8.15;;;3.42;;
27209;SDS011;14721;42.668;23.386;2023-06-04T05:05:26;6.45;;;3.25;;
27209;SDS011;14721;42.668;23.386;2023-06-04T05:07:51;9.95;;;4.07;;
27209;SDS011;14721;42.668;23.386;2023-06-04T05:10:17;10.38;;;4.43;;
27209;SDS011;14721;42.668;23.386;2023-06-04T05:15:19;7.07;;;3.65;;
27209;SDS011;14721;42.668;23.386;2023-06-04T05:17:47;5.50;;;3.78;;
27209;SDS011;14721;42.668;23.386;2023-06-04T05:20:13;5.40;;;3.47;;
27209;SDS011;14721;42.668;23.386;2023-06-04T05:22:41;5.45;;;3.55;;
27209;SDS011;14721;42.668;23.386;2023-06-04T05:25:08;8.95;;;3.92;;
27209;SDS011;14721;42.668;23.386;2023-06-04T05:27:35;6.65;;;3.70;;
27209;SDS011;14721;42.668;23.386;2023-06-04T05:30:01;7.15;;;4.10;;
27209;SDS011;14721;42.668;23.386;2023-06-04T05:32:27;11.68;;;4.88;;
27209;SDS011;14721;42.668;23.386;2023-06-04T05:34:57;6.28;;;3.90;;
27209;SDS011;14721;42.668;23.386;2023-06-04T05:37:27;7.40;;;4.78;;
27209;SDS011;14721;42.668;23.386;2023-06-04T05:39:57;5.75;;;3.70;;
27209;SDS011;14721;42.668;23.386;2023-06-04T05:42:23;7.90;;;4.13;;
27209;SDS011;14721;42.668;23.386;2023-06-04T05:44:49;6.43;;;3.50;;
27209;SDS011;14721;42.668;23.386;2023-06-04T05:47:16;9.52;;;3.58;;
27209;SDS011;14721;42.668;23.386;2023-06-04T05:49:42;6.72;;;4.00;;
27209;SDS011;14721;42.668;23.386;2023-06-04T05:52:07;5.63;;;3.40;;
27209;SDS011;14721;42.668;23.386;2023-06-04T05:54:33;5.55;;;3.40;;
27209;SDS011;14721;42.668;23.386;2023-06-04T05:57:02;6.80;;;3.50;;
27209;SDS011;14721;42.668;23.386;2023-06-04T05:59:28;8.40;;;3.40;;
27209;SDS011;14721;42.668;23.386;2023-06-04T06:01:57;6.72;;;3.92;;
27209;SDS011;14721;42.668;23.386;2023-06-04T06:04:23;5.88;;;3.70;;
27209;SDS011;14721;42.668;23.386;2023-06-04T06:06:49;7.55;;;4.05;;
27209;SDS011;14721;42.668;23.386;2023-06-04T06:09:15;9.48;;;4.80;;
27209;SDS011;14721;42.668;23.386;2023-06-04T06:11:41;6.93;;;3.95;;
27209;SDS011;14721;42.668;23.386;2023-06-04T06:14:07;7.68;;;4.32;;
27209;SDS011;14721;42.668;23.386;2023-06-04T06:16:33;7.65;;;4.10;;
27209;SDS011;14721;42.668;23.386;2023-06-04T06:19:00;5.90;;;3.45;;
27209;SDS011;14721;42.668;23.386;2023-06-04T06:21:26;6.40;;;3.70;;
27209;SDS011;14721;42.668;23.386;2023-06-04T06:23:53;5.07;;;3.80;;
27209;SDS011;14721;42.668;23.386;2023-06-04T06:26:19;7.55;;;3.97;;
27209;SDS011;14721;42.668;23.386;2023-06-04T06:28:45;6.50;;;3.63;;
27209;SDS011;14721;42.668;23.386;2023-06-04T06:31:11;5.97;;;3.42;;
27209;SDS011;14721;42.668;23.386;2023-06-04T06:33:36;8.40;;;3.25;;
27209;SDS011;14721;42.668;23.386;2023-06-04T06:36:06;4.65;;;3.10;;
27209;SDS011;14721;42.668;23.386;2023-06-04T06:38:33;5.35;;;3.63;;
27209;SDS011;14721;42.668;23.386;2023-06-04T06:40:58;6.20;;;4.03;;
27209;SDS011;14721;42.668;23.386;2023-06-04T06:43:24;5.28;;;3.63;;
27209;SDS011;14721;42.668;23.386;2023-06-04T06:45:51;5.00;;;3.53;;
27209;SDS011;14721;42.668;23.386;2023-06-04T06:48:17;4.72;;;3.33;;
27209;SDS011;14721;42.668;23.386;2023-06-04T06:50:42;7.55;;;4.10;;
27209;SDS011;14721;42.668;23.386;2023-06-04T06:53:08;4.22;;;3.17;;
27209;SDS011;14721;42.668;23.386;2023-06-04T06:55:33;7.47;;;3.92;;
27209;SDS011;14721;42.668;23.386;2023-06-04T06:57:59;5.22;;;2.80;;
27209;SDS011;14721;42.668;23.386;2023-06-04T07:00:25;4.90;;;3.13;;
27209;SDS011;14721;42.668;23.386;2023-06-04T07:02:52;5.32;;;3.28;;
27209;SDS011;14721;42.668;23.386;2023-06-04T07:05:18;6.32;;;3.17;;
27209;SDS011;14721;42.668;23.386;2023-06-04T07:07:43;6.07;;;3.42;;
27209;SDS011;14721;42.668;23.386;2023-06-04T07:10:09;4.68;;;3.17;;
27209;SDS011;14721;42.668;23.386;2023-06-04T07:12:34;8.07;;;3.45;;
27209;SDS011;14721;42.668;23.386;2023-06-04T07:15:00;8.57;;;3.30;;
27209;SDS011;14721;42.668;23.386;2023-06-04T07:17:26;6.15;;;4.22;;
27209;SDS011;14721;42.668;23.386;2023-06-04T07:19:51;7.78;;;3.22;;
27209;SDS011;14721;42.668;23.386;2023-06-04T07:22:17;6.88;;;3.50;;
27209;SDS011;14721;42.668;23.386;2023-06-04T07:24:43;7.68;;;3.30;;
27209;SDS011;14721;42.668;23.386;2023-06-04T07:27:11;5.05;;;3.22;;
27209;SDS011;14721;42.668;23.386;2023-06-04T07:29:38;6.55;;;3.13;;
27209;SDS011;14721;42.668;23.386;2023-06-04T07:32:04;8.82;;;4.10;;
27209;SDS011;14721;42.668;23.386;2023-06-04T07:34:31;6.10;;;3.75;;
27209;SDS011;14721;42.668;23.386;2023-06-04T07:36:57;5.65;;;3.50;;
27209;SDS011;14721;42.668;23.386;2023-06-04T07:39:23;6.43;;;3.42;;
27209;SDS011;14721;42.668;23.386;2023-06-04T07:41:48;5.35;;;3.45;;
27209;SDS011;14721;42.668;23.386;2023-06-04T07:44:14;7.60;;;4.47;;
27209;SDS011;14721;42.668;23.386;2023-06-04T07:46:39;6.40;;;3.80;;
27209;SDS011;14721;42.668;23.386;2023-06-04T07:49:05;9.23;;;4.53;;
27209;SDS011;14721;42.668;23.386;2023-06-04T07:51:33;5.68;;;3.80;;
27209;SDS011;14721;42.668;23.386;2023-06-04T07:54:00;6.60;;;3.72;;
27209;SDS011;14721;42.668;23.386;2023-06-04T07:56:27;6.30;;;3.47;;
27209;SDS011;14721;42.668;23.386;2023-06-04T07:58:52;6.18;;;3.92;;
27209;SDS011;14721;42.668;23.386;2023-06-04T08:01:18;9.25;;;3.97;;
27209;SDS011;14721;42.668;23.386;2023-06-04T08:03:43;6.28;;;3.70;;
27209;SDS011;14721;42.668;23.386;2023-06-04T08:06:09;6.53;;;3.90;;
27209;SDS011;14721;42.668;23.386;2023-06-04T08:08:35;8.48;;;4.03;;
27209;SDS011;14721;42.668;23.386;2023-06-04T08:11:01;6.43;;;3.38;;
27209;SDS011;14721;42.668;23.386;2023-06-04T08:13:26;5.55;;;3.45;;
27209;SDS011;14721;42.668;23.386;2023-06-04T08:15:52;7.55;;;3.83;;
27209;SDS011;14721;42.668;23.386;2023-06-04T08:18:17;4.88;;;3.53;;
27209;SDS011;14721;42.668;23.386;2023-06-04T08:20:42;4.85;;;3.50;;
27209;SDS011;14721;42.668;23.386;2023-06-04T08:23:08;7.18;;;4.13;;
27209;SDS011;14721;42.668;23.386;2023-06-04T08:25:33;6.78;;;4.30;;
27209;SDS011;14721;42.668;23.386;2023-06-04T08:27:59;8.85;;;4.47;;
27209;SDS011;14721;42.668;23.386;2023-06-04T08:30:25;6.78;;;3.80;;
27209;SDS011;14721;42.668;23.386;2023-06-04T08:32:52;7.57;;;4.68;;
27209;SDS011;14721;42.668;23.386;2023-06-04T08:35:18;10.00;;;4.50;;
27209;SDS011;14721;42.668;23.386;2023-06-04T08:37:44;6.85;;;3.60;;
27209;SDS011;14721;42.668;23.386;2023-06-04T08:40:09;8.48;;;4.07;;
27209;SDS011;14721;42.668;23.386;2023-06-04T08:42:42;8.63;;;4.78;;
27209;SDS011;14721;42.668;23.386;2023-06-04T08:45:09;7.78;;;4.13;;
27209;SDS011;14721;42.668;23.386;2023-06-04T08:47:43;8.10;;;4.63;;
27209;SDS011;14721;42.668;23.386;2023-06-04T08:50:12;11.07;;;4.53;;
27209;SDS011;14721;42.668;23.386;2023-06-04T08:52:42;9.95;;;4.07;;
27209;SDS011;14721;42.668;23.386;2023-06-04T08:55:11;11.35;;;4.97;;
27209;SDS011;14721;42.668;23.386;2023-06-04T08:57:39;7.30;;;4.35;;
27209;SDS011;14721;42.668;23.386;2023-06-04T09:00:05;7.78;;;5.43;;
27209;SDS011;14721;42.668;23.386;2023-06-04T09:02:36;8.85;;;4.70;;
27209;SDS011;14721;42.668;23.386;2023-06-04T09:05:05;8.98;;;4.93;;
27209;SDS011;14721;42.668;23.386;2023-06-04T09:07:35;7.20;;;4.20;;
27209;SDS011;14721;42.668;23.386;2023-06-04T09:10:02;7.38;;;4.70;;
27209;SDS011;14721;42.668;23.386;2023-06-04T09:12:29;9.88;;;4.63;;
27209;SDS011;14721;42.668;23.386;2023-06-04T09:14:55;7.25;;;4.57;;
27209;SDS011;14721;42.668;23.386;2023-06-04T09:17:21;8.40;;;4.47;;
27209;SDS011;14721;42.668;23.386;2023-06-04T09:19:48;10.95;;;5.80;;
27209;SDS011;14721;42.668;23.386;2023-06-04T09:22:15;7.78;;;4.90;;
27209;SDS011;14721;42.668;23.386;2023-06-04T09:24:42;9.57;;;6.25;;
27209;SDS011;14721;42.668;23.386;2023-06-04T09:27:13;8.98;;;4.68;;
27209;SDS011;14721;42.668;23.386;2023-06-04T09:29:40;9.35;;;4.65;;
27209;SDS011;14721;42.668;23.386;2023-06-04T09:32:13;9.50;;;4.40;;
27209;SDS011;14721;42.668;23.386;2023-06-04T09:34:38;7.15;;;4.25;;
27209;SDS011;14721;42.668;23.386;2023-06-04T09:37:13;6.25;;;3.65;;
27209;SDS011;14721;42.668;23.386;2023-06-04T09:39:56;9.30;;;4.88;;
27209;SDS011;14721;42.668;23.386;2023-06-04T09:42:24;5.93;;;3.85;;
27209;SDS011;14721;42.668;23.386;2023-06-04T09:44:50;9.27;;;4.75;;
27209;SDS011;14721;42.668;23.386;2023-06-04T09:47:15;11.45;;;5.32;;
27209;SDS011;14721;42.668;23.386;2023-06-04T09:49:41;9.18;;;5.60;;
27209;SDS011;14721;42.668;23.386;2023-06-04T09:52:11;9.80;;;5.53;;
27209;SDS011;14721;42.668;23.386;2023-06-04T09:54:40;9.82;;;5.00;;
27209;SDS011;14721;42.668;23.386;2023-06-04T09:57:16;6.70;;;4.70;;
27209;SDS011;14721;42.668;23.386;2023-06-04T09:59:46;10.35;;;4.80;;
27209;SDS011;14721;42.668;23.386;2023-06-04T10:02:18;10.98;;;4.90;;
27209;SDS011;14721;42.668;23.386;2023-06-04T10:04:49;11.70;;;4.68;;
27209;SDS011;14721;42.668;23.386;2023-06-04T10:07:24;6.63;;;5.03;;
27209;SDS011;14721;42.668;23.386;2023-06-04T10:09:54;7.75;;;4.70;;
27209;SDS011;14721;42.668;23.386;2023-06-04T10:12:25;11.55;;;5.00;;
27209;SDS011;14721;42.668;23.386;2023-06-04T10:15:13;11.80;;;5.03;;
27209;SDS011;14721;42.668;23.386;2023-06-04T10:17:39;9.30;;;4.75;;
27209;SDS011;14721;42.668;23.386;2023-06-04T10:20:08;9.52;;;4.57;;
27209;SDS011;14721;42.668;23.386;2023-06-04T10:22:35;8.00;;;5.00;;
27209;SDS011;14721;42.668;23.386;2023-06-04T10:25:01;9.07;;;4.35;;
27209;SDS011;14721;42.668;23.386;2023-06-04T10:27:30;6.45;;;4.55;;
27209;SDS011;14721;42.668;23.386;2023-06-04T10:29:57;6.75;;;4.00;;
27209;SDS011;14721;42.668;23.386;2023-06-04T10:32:26;5.75;;;4.10;;
27209;SDS011;14721;42.668;23.386;2023-06-04T10:34:53;7.28;;;4.57;;
27209;SDS011;14721;42.668;23.386;2023-06-04T10:37:22;8.23;;;4.85;;
27209;SDS011;14721;42.668;23.386;2023-06-04T10:39:53;5.65;;;4.28;;
27209;SDS011;14721;42.668;23.386;2023-06-04T10:42:22;6.57;;;3.97;;
27209;SDS011;14721;42.668;23.386;2023-06-04T10:44:49;6.80;;;4.53;;
27209;SDS011;14721;42.668;23.386;2023-06-04T10:47:22;6.47;;;4.72;;
27209;SDS011;14721;42.668;23.386;2023-06-04T10:49:50;6.50;;;4.45;;
27209;SDS011;14721;42.668;23.386;2023-06-04T10:52:16;8.93;;;5.40;;
27209;SDS011;14721;42.668;23.386;2023-06-04T10:54:42;6.68;;;4.55;;
27209;SDS011;14721;42.668;23.386;2023-06-04T10:57:13;7.88;;;4.75;;
27209;SDS011;14721;42.668;23.386;2023-06-04T10:59:40;6.93;;;4.75;;
27209;SDS011;14721;42.668;23.386;2023-06-04T11:02:06;8.38;;;4.85;;
27209;SDS011;14721;42.668;23.386;2023-06-04T11:04:33;8.57;;;5.50;;
27209;SDS011;14721;42.668;23.386;2023-06-04T11:07:02;9.48;;;5.13;;
27209;SDS011;14721;42.668;23.386;2023-06-04T11:09:30;8.32;;;5.28;;
27209;SDS011;14721;42.668;23.386;2023-06-04T11:11:59;10.38;;;4.80;;
27209;SDS011;14721;42.668;23.386;2023-06-04T11:14:25;7.50;;;5.22;;
27209;SDS011;14721;42.668;23.386;2023-06-04T11:16:51;11.00;;;6.38;;
27209;SDS011;14721;42.668;23.386;2023-06-04T11:19:16;9.55;;;5.72;;
27209;SDS011;14721;42.668;23.386;2023-06-04T11:21:43;9.93;;;5.70;;
27209;SDS011;14721;42.668;23.386;2023-06-04T11:24:09;9.90;;;4.75;;
27209;SDS011;14721;42.668;23.386;2023-06-04T11:26:37;7.47;;;5.40;;
27209;SDS011;14721;42.668;23.386;2023-06-04T11:29:05;10.18;;;5.13;;
27209;SDS011;14721;42.668;23.386;2023-06-04T11:34:09;11.02;;;5.43;;
27209;SDS011;14721;42.668;23.386;2023-06-04T11:36:38;10.30;;;5.57;;
27209;SDS011;14721;42.668;23.386;2023-06-04T11:39:04;9.15;;;6.28;;
27209;SDS011;14721;42.668;23.386;2023-06-04T11:41:34;10.32;;;6.20;;
27209;SDS011;14721;42.668;23.386;2023-06-04T11:44:02;9.27;;;6.90;;
27209;SDS011;14721;42.668;23.386;2023-06-04T11:46:31;8.90;;;5.75;;
27209;SDS011;14721;42.668;23.386;2023-06-04T11:48:57;13.00;;;5.60;;
27209;SDS011;14721;42.668;23.386;2023-06-04T11:51:24;8.73;;;5.40;;
27209;SDS011;14721;42.668;23.386;2023-06-04T11:53:49;9.27;;;5.82;;
27209;SDS011;14721;42.668;23.386;2023-06-04T11:56:15;10.07;;;6.10;;
27209;SDS011;14721;42.668;23.386;2023-06-04T11:58:42;8.88;;;5.03;;
27209;SDS011;14721;42.668;23.386;2023-06-04T12:01:09;11.98;;;5.88;;
27209;SDS011;14721;42.668;23.386;2023-06-04T12:03:37;8.02;;;5.63;;
27209;SDS011;14721;42.668;23.386;2023-06-04T12:06:20;10.65;;;5.90;;
27209;SDS011;14721;42.668;23.386;2023-06-04T12:08:53;8.50;;;5.90;;
27209;SDS011;14721;42.668;23.386;2023-06-04T12:11:41;7.13;;;5.32;;
27209;SDS011;14721;42.668;23.386;2023-06-04T12:14:06;6.25;;;4.82;;
27209;SDS011;14721;42.668;23.386;2023-06-04T12:16:35;8.63;;;5.97;;
27209;SDS011;14721;42.668;23.386;2023-06-04T12:19:08;8.38;;;6.20;;
27209;SDS011;14721;42.668;23.386;2023-06-04T12:21:36;7.45;;;5.45;;
27209;SDS011;14721;42.668;23.386;2023-06-04T12:24:10;7.10;;;5.45;;
27209;SDS011;14721;42.668;23.386;2023-06-04T12:26:36;8.30;;;5.40;;
27209;SDS011;14721;42.668;23.386;2023-06-04T12:29:14;7.97;;;5.93;;
27209;SDS011;14721;42.668;23.386;2023-06-04T12:31:43;8.48;;;5.90;;
27209;SDS011;14721;42.668;23.386;2023-06-04T12:34:10;9.23;;;6.05;;
27209;SDS011;14721;42.668;23.386;2023-06-04T12:36:38;11.55;;;6.18;;
27209;SDS011;14721;42.668;23.386;2023-06-04T12:39:04;7.75;;;5.85;;
27209;SDS011;14721;42.668;23.386;2023-06-04T12:41:32;8.60;;;5.60;;
27209;SDS011;14721;42.668;23.386;2023-06-04T12:44:00;7.82;;;5.68;;
27209;SDS011;14721;42.668;23.386;2023-06-04T12:46:26;8.25;;;6.00;;
27209;SDS011;14721;42.668;23.386;2023-06-04T12:48:53;8.32;;;5.75;;
27209;SDS011;14721;42.668;23.386;2023-06-04T12:51:19;7.30;;;5.45;;
27209;SDS011;14721;42.668;23.386;2023-06-04T12:53:46;8.05;;;5.00;;
27209;SDS011;14721;42.668;23.386;2023-06-04T12:56:13;7.40;;;4.72;;
27209;SDS011;14721;42.668;23.386;2023-06-04T12:58:39;10.05;;;5.70;;
27209;SDS011;14721;42.668;23.386;2023-06-04T13:01:05;7.35;;;5.18;;
27209;SDS011;14721;42.668;23.386;2023-06-04T13:03:31;6.80;;;4.60;;
27209;SDS011;14721;42.668;23.386;2023-06-04T13:05:57;8.57;;;5.55;;
27209;SDS011;14721;42.668;23.386;2023-06-04T13:08:23;9.38;;;4.80;;
27209;SDS011;14721;42.668;23.386;2023-06-04T13:10:50;6.82;;;4.80;;
27209;SDS011;14721;42.668;23.386;2023-06-04T13:13:17;9.40;;;4.97;;
27209;SDS011;14721;42.668;23.386;2023-06-04T13:15:44;10.95;;;5.18;;
27209;SDS011;14721;42.668;23.386;2023-06-04T13:18:10;10.65;;;5.68;;
27209;SDS011;14721;42.668;23.386;2023-06-04T13:20:37;8.93;;;5.22;;
27209;SDS011;14721;42.668;23.386;2023-06-04T13:23:05;8.18;;;4.88;;
27209;SDS011;14721;42.668;23.386;2023-06-04T13:25:31;6.05;;;4.50;;
27209;SDS011;14721;42.668;23.386;2023-06-04T13:28:02;5.32;;;4.30;;
27209;SDS011;14721;42.668;23.386;2023-06-04T13:30:28;8.40;;;4.38;;
27209;SDS011;14721;42.668;23.386;2023-06-04T13:32:53;10.02;;;5.25;;
27209;SDS011;14721;42.668;23.386;2023-06-04T13:35:19;11.32;;;4.93;;
27209;SDS011;14721;42.668;23.386;2023-06-04T13:37:45;7.68;;;4.40;;
27209;SDS011;14721;42.668;23.386;2023-06-04T13:40:12;5.70;;;4.45;;
27209;SDS011;14721;42.668;23.386;2023-06-04T13:42:38;8.02;;;3.92;;
27209;SDS011;14721;42.668;23.386;2023-06-04T13:45:04;7.05;;;5.07;;
27209;SDS011;14721;42.668;23.386;2023-06-04T13:47:31;7.88;;;5.45;;
27209;SDS011;14721;42.668;23.386;2023-06-04T13:49:58;9.80;;;4.90;;
27209;SDS011;14721;42.668;23.386;2023-06-04T13:52:24;6.45;;;4.68;;
27209;SDS011;14721;42.668;23.386;2023-06-04T13:54:49;6.57;;;4.55;;
27209;SDS011;14721;42.668;23.386;2023-06-04T13:57:16;6.63;;;4.30;;
27209;SDS011;14721;42.668;23.386;2023-06-04T13:59:42;7.63;;;4.88;;
27209;SDS011;14721;42.668;23.386;2023-06-04T14:02:08;7.97;;;5.07;;
27209;SDS011;14721;42.668;23.386;2023-06-04T14:04:34;7.20;;;4.90;;
27209;SDS011;14721;42.668;23.386;2023-06-04T14:07:00;6.55;;;4.53;;
27209;SDS011;14721;42.668;23.386;2023-06-04T14:09:26;7.50;;;4.63;;
27209;SDS011;14721;42.668;23.386;2023-06-04T14:11:51;6.78;;;4.85;;
27209;SDS011;14721;42.668;23.386;2023-06-04T14:14:17;7.57;;;4.57;;
27209;SDS011;14721;42.668;23.386;2023-06-04T14:16:44;7.47;;;4.93;;
27209;SDS011;14721;42.668;23.386;2023-06-04T14:19:10;6.93;;;4.70;;
27209;SDS011;14721;42.668;23.386;2023-06-04T14:21:36;8.85;;;4.68;;
27209;SDS011;14721;42.668;23.386;2023-06-04T14:24:01;8.15;;;4.90;;
27209;SDS011;14721;42.668;23.386;2023-06-04T14:26:27;6.25;;;4.80;;
27209;SDS011;14721;42.668;23.386;2023-06-04T14:28:54;8.02;;;4.47;;
27209;SDS011;14721;42.668;23.386;2023-06-04T14:31:20;6.70;;;4.97;;
27209;SDS011;14721;42.668;23.386;2023-06-04T14:33:45;10.27;;;6.00;;
27209;SDS011;14721;42.668;23.386;2023-06-04T14:36:11;8.43;;;5.80;;
27209;SDS011;14721;42.668;23.386;2023-06-04T14:38:37;8.07;;;5.18;;
27209;SDS011;14721;42.668;23.386;2023-06-04T14:41:04;9.90;;;6.15;;
27209;SDS011;14721;42.668;23.386;2023-06-04T14:43:30;8.23;;;4.80;;